TAF and METAR

METAR for Carlos Ibanez Del Campo International Airport

SCCI 011600Z 31021KT CAVOK 15/05 Q1013 NOSIG
Report created 1. apr 18:00
wind 21 knots from NW (310°) Clear sky Temperature 15° with dewpoint at 5° (Humidity 51.21%) Pressure 1013 hPa no significant weather change expected the next couple of hours

TAF for Carlos Ibanez Del Campo International Airport

TAF SCCI 011035Z 0112/0212 35010KT 9999 FEW045 TN08/0112Z TX15/0119Z BECMG 0112/0114 30016KT TEMPO 0120/0206 33025G35KT 9000 -SHRA SCT025 BKN035 BECMG 0207/0209 33020KT SCT038
Report created 1. apr 12:35

between 1. apr 14:00 - 2. apr 14:00

wind 10 knots from N (350°) visibility > 10km some clouds (~25% cover) at 4500 feet Min temperature 08° expected today at around 14 o'clock
Carlos Ibanez Del Campo International Airport in Chile at 37m

Latest 5 airports